Houston, Texas
Traffic Map
Current Weather Conditions
Houston, Texas
Overcast
Overcast
59°
Feels Like: 59°
Wind Chill: 59° Ceiling: 300
Heat Index: 59° Visibility: 3mi
Dew Point: 59° Wind: 17mph
Humidity: 100% Direction: 100° (E)
Pressure: 29.9in Gusts: 24mph
Raw Report DataKMCJ 010535Z AUTO 10015G21KT 3SM OVC003 15/15 A2990 RMK AO1
Traffic Incident Summary
Active as of:
Severity:
Category:
InformationThere was an issue retrieving the traffic information for this location. Please try a different location or try again shortly.
Advertisements
Track Severe Weather on mobile